Have a Safe July 4th! 

Flight Track Log - Related Links

Times and Time Zones

All times are in EDT time to prevent confusion due to time zone crossing. See the UAL4115 flight status page for this flight to view local times or setup timezone preferences in your user account.

Time Position Orientation Groundspeed Altitude Reporting Facility
EDT Latitude Longitude Course Direction KTS MPH feet Rate Location/Type
Fri 08:21:43 AM 25.7392 -100.2269 64° Northeast 555 639 35,000  Level Houston Center
Fri 08:22:44 AM 25.8175 -100.0450 64° Northeast 554 638 35,000  Level Houston Center
Fri 08:23:45 AM 25.9186 -99.9267 46° Northeast 538 619 35,000  Level Houston Center
Fri 08:24:46 AM 26.0175 -99.8053 48° Northeast 532 612 35,000  Level Houston Center
Fri 08:25:48 AM 26.1153 -99.6853 48° Northeast 528 608 35,000  Level Houston Center
Fri 08:26:49 AM 26.2153 -99.5636 47° Northeast 530 610 35,000  Level Houston Center
Fri 08:27:51 AM 26.3156 -99.4417 47° Northeast 532 612 35,000  Level Houston Center
Fri 08:28:52 AM 26.4136 -99.3200 48° Northeast 531 611 35,000  Level Houston Center
Fri 08:29:53 AM 26.5169 -99.2019 46° Northeast 533 613 35,000  Level Houston Center
Fri 08:30:55 AM 26.6269 -99.0978 40° Northeast 525 604 35,000  Level Houston Center
Fri 08:31:56 AM 26.7592 -98.9725 40° Northeast 522 601 35,000  Level Houston Center
Fri 08:32:58 AM 26.8683 -98.8647 41° Northeast 524 603 35,000  Level Houston Center
Fri 08:33:59 AM 26.9786 -98.7575 41° Northeast 527 606 35,000  Level Houston Center
Fri 08:35:00 AM 27.0883 -98.6486 41° Northeast 530 610 35,000  Level Houston Center
Fri 08:36:02 AM 27.1983 -98.5419 41° Northeast 529 609 35,000  Level Houston Center
Fri 08:37:03 AM 27.3081 -98.4325 42° Northeast 531 611 35,000  Level Houston Center
Fri 08:38:05 AM 27.4422 -98.3019 41° Northeast 534 615 35,000  Level Houston Center
Fri 08:39:06 AM 27.5536 -98.1919 41° Northeast 535 616 35,000  Level Houston Center
Fri 08:40:08 AM 27.6661 -98.0797 41° Northeast 539 620 35,000 -49 Level Houston Center
Fri 08:41:09 AM 27.7792 -97.9667 41° Northeast 544 626 34,900  Descending Houston Center
Fri 08:42:11 AM 27.8936 -97.8536 41° Northeast 547 629 35,000 48 Climbing Houston Center
Fri 08:43:13 AM 28.0086 -97.7389 41° Northeast 551 634 35,000  Level Houston Center
Fri 08:44:14 AM 28.1231 -97.6247 41° Northeast 553 636 35,000  Level Houston Center
Fri 08:45:16 AM 28.2617 -97.4856 41° Northeast 555 639 35,000  Level Houston Center
Fri 08:46:17 AM 28.3778 -97.3683 42° Northeast 559 643 35,000  Level Houston Center
Fri 08:47:19 AM 28.4939 -97.2511 42° Northeast 559 643 35,000  Level Houston Center
Fri 08:48:20 AM 28.6097 -97.1319 42° Northeast 563 648 35,000 -488 Level Houston Center
Fri 08:49:22 AM 28.7256 -97.0144 42° Northeast 561 646 34,000 -1,707 Descending Houston Center
Fri 08:50:23 AM 28.8367 -96.9011 42° Northeast 541 623 31,500 -3,512 Descending Houston Center
Fri 08:51:25 AM 28.9669 -96.7672 42° Northeast 531 611 26,800 -3,805 Descending Houston Center
Fri 08:52:26 AM 29.0747 -96.6536 43° Northeast 532 612 23,700 -2,634 Descending Houston Center
Fri 08:53:28 AM 29.1753 -96.5514 42° Northeast 499 574 21,400 -2,458 Descending Houston Center
Fri 08:53:49 AM 29.2094 -96.5081 48° Northeast 476 548 20,300 -2,656 Descending Houston Center
Fri 08:54:29 AM 29.2536 -96.4342 56° Northeast 471 542 18,700 -2,459 Descending Houston Center
Fri 08:54:50 AM 29.2847 -96.3825 55° Northeast 462 532 17,800 -2,314 Descending Houston Center
Fri 08:55:39 AM 29.3508 -96.2939 49° Northeast 442 509 16,000 -2,214 Descending Houston Center
Fri 08:56:33 AM 29.4253 -96.2439 30° Northeast 434 499 14,000 -2,087 Descending Houston Center
Fri 08:57:34 AM 29.5422 -96.1647 30° Northeast 410 472 12,000 -1,561 Descending Houston Center
Fri 08:58:36 AM 29.5964 -96.0642 58° Northeast 372 428 10,800 -976 Descending Houston Center
Fri 08:59:37 AM 29.6447 -95.9706 59° Northeast 372 428 10,000 -439 Descending Houston Center
Fri 09:00:39 AM 29.6994 -95.8608 60° Northeast 390 449 9,900  Descending Houston Center
Fri 09:00:57 AM 29.7228 -95.8150 60° Northeast 391 450 10,000  Climbing Houston Center
Fri 09:01:40 AM 29.7528 -95.7547 60° Northeast 385 443 9,900 -857 Descending Houston Center
Fri 09:02:42 AM 29.8058 -95.6503 60° Northeast 320 368 8,500 -1,215 Descending Houston Center
Fri 09:02:59 AM 29.8172 -95.6258 62° Northeast 293 337 8,300 -1,452 Descending Houston Center
Fri 09:03:44 AM 29.8453 -95.5717 59° Northeast 293 337 7,000 -1,358 Descending Houston Center
Fri 09:04:45 AM 29.8819 -95.4967 61° Northeast 274 315 5,900 -537 Descending Houston Center
Fri 09:05:47 AM 29.8967 -95.4131 78° East 277 319 5,900  Level Houston Center
Fri 09:06:48 AM 29.8969 -95.3206 90° East 285 328 5,900  Level Houston Center
Fri 09:07:50 AM 29.8967 -95.2278 90° East 288 331 5,900 -1,122 Level Houston Center
Fri 09:08:51 AM 29.9050 -95.1444 83° East 272 313 3,600 -1,902 Descending Houston Center
Fri 09:09:53 AM 29.9539 -95.1608 344° North 232 267 2,000 -927 Descending Houston Center
Fri 09:10:54 AM 29.9778 -95.2097 299° West 211 243 1,700 -634 Descending Houston Center
Fri 09:11:56 AM 29.9786 -95.2656 271° West 164 189 700 -726 Descending Houston Center
Fri 09:12:58 AM 29.9775 -95.3042 268° West 152 175 200 -484 Descending Houston Center

Login

Don't have an account? Register now (free) for customized features, flight alerts, and more!